Time;durP1;ratioP1;P1;durP2;ratioP2;P2;SDS_P1;SDS_P2;PMS_P1;PMS_P2;Temp;Humidity;BMP_temperature;BMP_pressure;BME280_temperature;BME280_humidity;BME280_pressure;Samples;Min_cycle;Max_cycle;Signal;HPM_P1;HPM_P2
2022/04/09 00:00:23;;;;;;;10.20;4.90;;;14.80;86.80;;;;;;5073375;28;20039;-63
2022/04/09 00:02:50;;;;;;;7.78;4.22;;;14.90;85.40;;;;;;5073314;28;20041;-62
2022/04/09 00:05:16;;;;;;;13.82;7.05;;;15.00;83.70;;;;;;5073325;28;20017;-62
2022/04/09 00:07:43;;;;;;;12.48;6.20;;;15.10;84.90;;;;;;5073274;28;20020;-62
2022/04/09 00:10:11;;;;;;;9.52;4.22;;;15.10;84.60;;;;;;5073192;28;20024;-62
2022/04/09 00:12:38;;;;;;;12.80;3.92;;;15.20;83.60;;;;;;5073087;28;20104;-62
2022/04/09 00:15:05;;;;;;;9.00;4.50;;;15.20;83.20;;;;;;5073209;28;20169;-62
2022/04/09 00:17:38;;;;;;;8.77;3.65;;;15.30;84.80;;;;;;5072071;28;20025;-64
2022/04/09 00:20:05;;;;;;;6.97;3.28;;;15.30;83.60;;;;;;5055083;28;20025;-63
2022/04/09 00:22:32;;;;;;;6.40;3.03;;;15.30;83.40;;;;;;5073103;28;20032;-63
2022/04/09 00:24:58;;;;;;;5.97;3.47;;;15.40;83.10;;;;;;5073119;28;20035;-63
2022/04/09 00:27:24;;;;;;;6.68;2.90;;;15.30;83.60;;;;;;5072982;28;20029;-63
2022/04/09 00:29:50;;;;;;;10.60;3.33;;;15.40;85.20;;;;;;5054938;28;20115;-66
2022/04/09 00:32:15;;;;;;;8.10;3.42;;;15.30;86.60;;;;;;5072826;28;20025;-64
2022/04/09 00:34:41;;;;;;;6.75;3.38;;;15.30;85.40;;;;;;5073060;28;20032;-63
2022/04/09 00:37:10;;;;;;;7.18;3.33;;;15.30;86.30;;;;;;5073188;28;20073;-63
2022/04/09 00:39:36;;;;;;;6.28;3.20;;;15.30;87.60;;;;;;5054948;28;20028;-65
2022/04/09 00:42:02;;;;;;;10.15;3.10;;;15.30;86.70;;;;;;5072893;28;20388;-65
2022/04/09 00:44:27;;;;;;;4.22;2.75;;;15.30;84.30;;;;;;5072902;28;20110;-62
2022/04/09 00:46:53;;;;;;;4.70;2.80;;;15.30;84.60;;;;;;5073104;28;20158;-63
2022/04/09 00:49:20;;;;;;;7.28;3.35;;;15.40;83.80;;;;;;5072794;28;20432;-63
2022/04/09 00:51:49;;;;;;;5.35;2.97;;;15.40;84.40;;;;;;5054826;28;20109;-64
2022/04/09 00:54:15;;;;;;;4.55;2.72;;;15.40;84.10;;;;;;5072763;28;20037;-65
2022/04/09 00:56:43;;;;;;;6.10;2.75;;;15.40;84.50;;;;;;5072730;28;20020;-65
2022/04/09 00:59:12;;;;;;;7.85;2.88;;;15.40;84.20;;;;;;5054700;28;20027;-66
2022/04/09 01:01:39;;;;;;;8.38;3.33;;;15.40;85.30;;;;;;5054625;28;20056;-63
2022/04/09 01:04:12;;;;;;;5.70;2.67;;;15.40;85.50;;;;;;5072734;28;20071;-66
2022/04/09 01:06:38;;;;;;;5.30;2.70;;;15.40;84.70;;;;;;5072632;28;20145;-63
2022/04/09 01:09:06;;;;;;;7.07;3.10;;;15.40;85.30;;;;;;5072643;28;20028;-63
2022/04/09 01:11:33;;;;;;;8.85;3.50;;;15.40;84.60;;;;;;5054554;28;20029;-63
2022/04/09 01:14:00;;;;;;;5.85;2.65;;;15.40;85.00;;;;;;5072216;28;20413;-63
2022/04/09 01:16:29;;;;;;;9.95;3.35;;;15.40;85.20;;;;;;5072587;28;20024;-63
2022/04/09 01:18:57;;;;;;;11.73;3.72;;;15.40;85.60;;;;;;5072529;28;20024;-64
2022/04/09 01:21:27;;;;;;;9.35;3.25;;;15.40;86.20;;;;;;5054534;28;20062;-64
2022/04/09 01:23:53;;;;;;;7.85;3.58;;;15.40;86.70;;;;;;5072439;28;20032;-65
2022/04/09 01:26:20;;;;;;;12.45;3.58;;;15.30;87.30;;;;;;5072463;28;20032;-64
2022/04/09 01:28:47;;;;;;;5.57;2.55;;;15.20;87.00;;;;;;5075365;28;20059;-65
2022/04/09 01:31:14;;;;;;;12.77;3.28;;;15.20;86.50;;;;;;5076370;28;20537;-65
2022/04/09 01:33:40;;;;;;;5.03;2.42;;;15.10;87.30;;;;;;5075962;28;20032;-65
2022/04/09 01:36:06;;;;;;;7.75;2.63;;;15.00;87.10;;;;;;5058102;28;20170;-64
2022/04/09 01:38:34;;;;;;;4.28;2.00;;;15.00;87.80;;;;;;5075964;28;20104;-64
2022/04/09 01:41:01;;;;;;;5.30;2.20;;;14.90;87.90;;;;;;5075975;28;20081;-65
2022/04/09 01:43:27;;;;;;;4.18;2.33;;;14.80;87.90;;;;;;5076151;28;20485;-65
2022/04/09 01:45:53;;;;;;;6.20;2.45;;;14.80;88.20;;;;;;5057974;28;20077;-65
2022/04/09 01:48:19;;;;;;;6.90;2.50;;;14.80;88.30;;;;;;5075852;28;20028;-62
2022/04/09 01:50:46;;;;;;;5.28;3.20;;;14.70;88.30;;;;;;5075779;28;20068;-63
2022/04/09 01:53:12;;;;;;;4.57;2.95;;;14.70;87.90;;;;;;5075683;28;20029;-62
2022/04/09 01:55:38;;;;;;;7.30;2.75;;;14.70;88.10;;;;;;5075737;28;20504;-63
2022/04/09 01:58:04;;;;;;;4.95;2.53;;;14.70;88.30;;;;;;5075636;28;20029;-65
2022/04/09 02:00:30;;;;;;;4.72;2.30;;;14.70;88.20;;;;;;5075668;28;20025;-64
2022/04/09 02:02:56;;;;;;;5.15;2.17;;;14.70;88.40;;;;;;5075259;28;20111;-63
2022/04/09 02:05:24;;;;;;;5.72;2.38;;;14.70;88.10;;;;;;5075612;28;20024;-63
2022/04/09 02:07:51;;;;;;;5.80;2.63;;;14.60;88.40;;;;;;5075223;28;20354;-63
2022/04/09 02:10:18;;;;;;;6.00;2.67;;;14.60;89.40;;;;;;5075428;28;20044;-63
2022/04/09 02:12:45;;;;;;;5.82;2.58;;;14.60;89.50;;;;;;5075292;28;20039;-63
2022/04/09 02:15:13;;;;;;;10.57;3.90;;;14.60;89.90;;;;;;5075462;28;20048;-63
2022/04/09 02:17:40;;;;;;;7.85;2.60;;;14.50;90.20;;;;;;5075312;28;20040;-64
2022/04/09 02:20:08;;;;;;;6.93;3.15;;;14.50;90.00;;;;;;5057227;28;20025;-63
2022/04/09 02:22:39;;;;;;;9.10;2.92;;;14.40;90.30;;;;;;5075217;28;20035;-64
2022/04/09 02:25:06;;;;;;;4.97;2.42;;;14.30;90.40;;;;;;5075261;28;20385;-63
2022/04/09 02:27:32;;;;;;;3.75;2.38;;;14.30;90.70;;;;;;5075092;28;20020;-63
2022/04/09 02:29:58;;;;;;;6.80;2.60;;;14.20;91.20;;;;;;5075163;28;20020;-63
2022/04/09 02:32:24;;;;;;;9.20;2.50;;;14.30;91.30;;;;;;5056925;28;20482;-63
2022/04/09 02:34:53;;;;;;;9.15;2.45;;;14.30;91.40;;;;;;5075081;28;20120;-64
2022/04/09 02:37:20;;;;;;;7.35;2.67;;;14.40;91.40;;;;;;5074948;28;20155;-63
2022/04/09 02:39:46;;;;;;;5.60;1.95;;;14.30;91.60;;;;;;5056145;28;20033;-63
2022/04/09 02:42:12;;;;;;;12.18;1.95;;;14.30;91.70;;;;;;5056899;28;20029;-64
2022/04/09 02:44:39;;;;;;;8.15;2.20;;;14.30;91.90;;;;;;5074854;28;20155;-63
2022/04/09 02:47:05;;;;;;;8.13;2.40;;;14.40;92.20;;;;;;5056413;28;20035;-64
2022/04/09 02:49:31;;;;;;;7.50;2.00;;;14.30;92.20;;;;;;5074768;28;20071;-62
2022/04/09 02:51:58;;;;;;;5.00;1.75;;;14.40;92.40;;;;;;5074634;28;20032;-62
2022/04/09 02:54:24;;;;;;;11.75;2.47;;;14.40;92.30;;;;;;5074443;28;20505;-63
2022/04/09 02:56:50;;;;;;;6.03;1.75;;;14.40;92.40;;;;;;5074817;28;20024;-64
2022/04/09 02:59:16;;;;;;;6.53;2.30;;;14.40;92.50;;;;;;5074461;28;20111;-64
2022/04/09 03:01:45;;;;;;;5.90;2.10;;;14.40;92.60;;;;;;5074507;28;20058;-65
2022/04/09 03:04:12;;;;;;;14.48;2.88;;;14.40;92.70;;;;;;5056389;28;20477;-63
2022/04/09 03:06:38;;;;;;;7.70;2.90;;;14.30;92.70;;;;;;5056449;28;20120;-64
2022/04/09 03:09:04;;;;;;;10.30;2.35;;;14.30;92.90;;;;;;5074537;28;20411;-64
2022/04/09 03:11:30;;;;;;;9.40;2.80;;;14.30;92.90;;;;;;5074251;28;20059;-63
2022/04/09 03:13:56;;;;;;;7.38;2.15;;;14.30;92.90;;;;;;5073708;28;20458;-64
2022/04/09 03:16:22;;;;;;;11.65;3.03;;;14.30;93.20;;;;;;5056159;28;20111;-64
2022/04/09 03:18:48;;;;;;;10.60;2.95;;;;;;;;;;5074094;28;20385;-65
2022/04/09 03:21:15;;;;;;;9.48;3.08;;;14.10;93.90;;;;;;5074266;28;20523;-65
2022/04/09 03:23:44;;;;;;;10.30;2.70;;;14.10;94.00;;;;;;5073672;28;20036;-64
2022/04/09 03:26:11;;;;;;;6.70;2.63;;;13.90;94.30;;;;;;5073964;28;20032;-64
2022/04/09 03:28:38;;;;;;;6.30;2.50;;;13.90;94.50;;;;;;5055998;28;20021;-64
2022/04/09 03:31:04;;;;;;;7.50;3.20;;;13.90;94.40;;;;;;5073571;28;20571;-63
2022/04/09 03:33:31;;;;;;;8.85;2.90;;;13.90;94.40;;;;;;5073750;28;20070;-64
2022/04/09 03:35:57;;;;;;;6.43;2.78;;;14.00;94.60;;;;;;5073878;28;20028;-63
2022/04/09 03:38:23;;;;;;;10.05;3.22;;;13.90;94.60;;;;;;5055687;28;20032;-64
2022/04/09 03:40:49;;;;;;;9.32;2.70;;;14.00;94.60;;;;;;5073604;28;20028;-64
2022/04/09 03:43:15;;;;;;;12.60;2.95;;;14.00;94.60;;;;;;5055750;28;20066;-64
2022/04/09 03:45:40;;;;;;;9.52;3.00;;;14.10;94.60;;;;;;5073645;28;20480;-64
2022/04/09 03:48:06;;;;;;;11.18;3.15;;;14.10;94.50;;;;;;5073550;28;20051;-64
2022/04/09 03:50:32;;;;;;;6.43;3.30;;;14.20;94.40;;;;;;5073504;28;20025;-63
2022/04/09 03:53:01;;;;;;;11.32;3.75;;;14.10;94.70;;;;;;5073554;28;20028;-63
2022/04/09 03:55:28;;;;;;;6.47;3.30;;;14.10;94.80;;;;;;5073431;28;20103;-64
2022/04/09 03:57:56;;;;;;;6.57;3.05;;;14.10;94.90;;;;;;5073374;28;20074;-65
2022/04/09 04:00:21;;;;;;;9.85;3.17;;;14.10;95.00;;;;;;5073364;28;20108;-63
2022/04/09 04:02:47;;;;;;;12.15;3.13;;;14.00;95.10;;;;;;5073308;28;20111;-64
2022/04/09 04:05:14;;;;;;;9.68;2.78;;;14.00;95.20;;;;;;5073336;28;20461;-64
2022/04/09 04:07:44;;;;;;;6.80;2.97;;;14.00;95.30;;;;;;5072731;28;20028;-64
2022/04/09 04:10:10;;;;;;;8.23;3.10;;;13.90;95.50;;;;;;5072919;28;20056;-63
2022/04/09 04:12:40;;;;;;;8.43;3.63;;;13.90;95.60;;;;;;5054518;28;20127;-64
2022/04/09 04:15:07;;;;;;;9.10;3.25;;;13.90;96.00;;;;;;5072134;28;20040;-64
2022/04/09 04:17:43;;;;;;;13.80;3.65;;;13.90;96.00;;;;;;5072768;28;20415;-64
2022/04/09 04:20:11;;;;;;;7.70;3.30;;;14.00;96.10;;;;;;5055034;28;20385;-66
2022/04/09 04:22:38;;;;;;;13.43;3.90;;;14.00;96.20;;;;;;5073169;28;20101;-66
2022/04/09 04:25:05;;;;;;;13.90;3.72;;;14.00;96.00;;;;;;5073084;28;20024;-65
2022/04/09 04:27:31;;;;;;;16.17;4.20;;;14.00;96.20;;;;;;5073089;28;20020;-65
2022/04/09 04:30:01;;;;;;;8.00;3.72;;;14.10;96.30;;;;;;5073023;28;20066;-65
2022/04/09 04:32:27;;;;;;;14.38;4.00;;;14.10;96.10;;;;;;5072880;28;20024;-65
2022/04/09 04:34:53;;;;;;;26.15;5.32;;;14.10;96.30;;;;;;5054919;28;20039;-64
2022/04/09 04:37:19;;;;;;;7.13;3.70;;;14.10;96.50;;;;;;5072716;28;20111;-65
2022/04/09 04:39:45;;;;;;;14.15;4.45;;;14.10;96.70;;;;;;5072870;28;20025;-64
2022/04/09 04:42:11;;;;;;;14.38;5.65;;;14.10;96.60;;;;;;5054849;28;20381;-64
2022/04/09 04:44:37;;;;;;;15.50;6.50;;;14.10;97.30;;;;;;5072867;28;20024;-64
2022/04/09 04:47:03;;;;;;;19.63;5.82;;;14.10;97.20;;;;;;5072867;28;20035;-64
2022/04/09 04:49:29;;;;;;;15.77;4.97;;;14.20;97.50;;;;;;5072999;28;20629;-64
2022/04/09 04:51:55;;;;;;;17.00;5.30;;;14.30;97.40;;;;;;5072633;28;20052;-63
2022/04/09 04:54:21;;;;;;;14.82;5.47;;;14.30;97.40;;;;;;5072712;28;20385;-64
2022/04/09 04:56:47;;;;;;;18.25;5.70;;;14.40;97.60;;;;;;5054734;28;20458;-63
2022/04/09 04:59:15;;;;;;;20.08;5.63;;;14.40;97.80;;;;;;5072685;28;20044;-64
2022/04/09 05:01:41;;;;;;;16.17;5.75;;;14.50;98.90;;;;;;5072633;28;20029;-64
2022/04/09 05:04:07;;;;;;;22.17;5.95;;;14.50;99.10;;;;;;5075901;28;20067;-65
2022/04/09 05:06:33;;;;;;;24.05;7.05;;;14.60;99.10;;;;;;5076647;28;20469;-64
2022/04/09 05:08:59;;;;;;;19.48;6.50;;;14.70;98.70;;;;;;5058420;28;20074;-63
2022/04/09 05:11:25;;;;;;;15.27;6.05;;;14.80;98.90;;;;;;5076396;28;20029;-64
2022/04/09 05:13:51;;;;;;;21.27;6.78;;;14.90;99.20;;;;;;5076292;28;20126;-64
2022/04/09 05:16:17;;;;;;;15.60;6.40;;;14.90;99.90;;;;;;5076293;28;20043;-65
2022/04/09 05:18:42;;;;;;;9.40;4.95;;;15.00;98.90;;;;;;5076196;28;20028;-64
2022/04/09 05:21:08;;;;;;;43.75;5.53;;;15.10;97.50;;;;;;5076330;28;20115;-63
2022/04/09 05:23:34;;;;;;;12.63;4.50;;;15.20;97.80;;;;;;5076531;28;20040;-63
2022/04/09 05:26:00;;;;;;;21.45;4.10;;;15.20;98.60;;;;;;5076288;28;20025;-64
2022/04/09 05:28:26;;;;;;;9.10;3.92;;;15.40;97.90;;;;;;5058069;28;20373;-64
2022/04/09 05:30:51;;;;;;;14.25;3.47;;;15.60;97.20;;;;;;5058106;28;20120;-64
2022/04/09 05:33:18;;;;;;;10.50;4.32;;;15.60;96.40;;;;;;5063407;28;20032;-64
2022/04/09 05:35:44;;;;;;;14.13;3.67;;;15.70;97.00;;;;;;5044606;28;20064;-64
2022/04/09 05:38:10;;;;;;;18.30;4.50;;;15.80;96.70;;;;;;5064027;28;20048;-65
2022/04/09 05:40:37;;;;;;;11.35;4.57;;;15.80;96.50;;;;;;5048637;28;20043;-64
2022/04/09 05:43:03;;;;;;;11.10;4.78;;;16.00;95.90;;;;;;5066159;28;20035;-64
2022/04/09 05:45:29;;;;;;;10.30;3.67;;;16.10;94.80;;;;;;5060024;28;20063;-64
2022/04/09 05:47:55;;;;;;;13.55;4.68;;;16.10;95.20;;;;;;5066894;28;20025;-64
2022/04/09 05:50:21;;;;;;;11.00;4.00;;;16.20;95.40;;;;;;5065667;28;20493;-64
2022/04/09 05:52:50;;;;;;;12.82;4.85;;;16.30;94.90;;;;;;5065515;28;20052;-64
2022/04/09 05:55:17;;;;;;;17.85;5.45;;;16.30;95.30;;;;;;5063999;28;20020;-64
2022/04/09 05:57:43;;;;;;;12.85;4.63;;;16.40;95.00;;;;;;5060564;28;20189;-63
2022/04/09 06:00:10;;;;;;;8.63;3.38;;;16.50;94.60;;;;;;5055428;28;20083;-63
2022/04/09 06:02:39;;;;;;;8.35;3.85;;;16.60;94.00;;;;;;5055418;28;20036;-63
2022/04/09 06:05:06;;;;;;;11.77;3.85;;;16.70;94.30;;;;;;5055379;28;20033;-63
2022/04/09 06:07:32;;;;;;;7.20;3.97;;;16.70;94.30;;;;;;5054822;28;20025;-63
2022/04/09 06:10:04;;;;;;;9.73;3.97;;;16.70;94.40;;;;;;5054390;28;20028;-64
2022/04/09 06:12:30;;;;;;;12.98;3.95;;;16.80;94.50;;;;;;5055294;28;20029;-63
2022/04/09 06:14:55;;;;;;;9.32;4.00;;;16.90;94.60;;;;;;5054104;28;20076;-64
2022/04/09 06:17:25;;;;;;;11.07;4.03;;;16.90;94.00;;;;;;5037408;28;20025;-64
2022/04/09 06:19:51;;;;;;;13.00;4.43;;;17.00;94.00;;;;;;5055287;28;20104;-64
2022/04/09 06:22:18;;;;;;;9.13;3.47;;;17.00;94.70;;;;;;5055134;28;20108;-64
2022/04/09 06:24:44;;;;;;;12.18;4.22;;;17.10;94.70;;;;;;5055098;28;20079;-64
2022/04/09 06:27:13;;;;;;;9.38;3.90;;;17.20;94.90;;;;;;5055165;28;20477;-63
2022/04/09 06:29:38;;;;;;;18.67;4.00;;;17.20;94.00;;;;;;5037067;28;20029;-64
2022/04/09 06:32:05;;;;;;;8.82;3.30;;;17.30;94.20;;;;;;5036951;28;20029;-64
2022/04/09 06:34:31;;;;;;;11.43;3.22;;;17.40;93.80;;;;;;5054811;28;20040;-64
2022/04/09 06:36:57;;;;;;;10.50;4.68;;;17.40;94.80;;;;;;5054983;28;20029;-64
2022/04/09 06:39:23;;;;;;;10.85;4.47;;;17.50;93.70;;;;;;5054778;28;20078;-64
2022/04/09 06:41:50;;;;;;;10.18;3.65;;;17.50;93.10;;;;;;5036905;28;20074;-63
2022/04/09 06:44:16;;;;;;;8.50;3.20;;;17.60;93.20;;;;;;5054674;28;20040;-64
2022/04/09 06:46:43;;;;;;;7.05;2.92;;;17.70;93.00;;;;;;5054677;28;20074;-64
2022/04/09 06:49:15;;;;;;;17.05;3.45;;;17.80;93.40;;;;;;5036635;28;20029;-63
2022/04/09 06:51:42;;;;;;;12.38;3.88;;;17.80;93.40;;;;;;5054600;28;20021;-68
2022/04/09 06:54:09;;;;;;;7.47;3.33;;;17.80;93.80;;;;;;5051486;28;20116;-65
2022/04/09 06:56:36;;;;;;;12.88;4.55;;;17.80;92.90;;;;;;5054065;28;20037;-65
2022/04/09 06:59:06;;;;;;;10.77;3.40;;;17.90;93.70;;;;;;5054396;28;20446;-66
2022/04/09 07:01:32;;;;;;;13.25;4.35;;;17.90;92.80;;;;;;5054297;28;20032;-66
2022/04/09 07:04:00;;;;;;;9.77;3.25;;;;;;;;;;5036194;28;20138;-65
2022/04/09 07:06:26;;;;;;;11.07;3.28;;;18.00;93.40;;;;;;5036224;28;20029;-65
2022/04/09 07:08:52;;;;;;;9.98;3.78;;;18.20;92.30;;;;;;5054146;28;20017;-65
2022/04/09 07:11:18;;;;;;;8.77;3.38;;;18.30;91.40;;;;;;5054064;28;20104;-65
2022/04/09 07:13:44;;;;;;;11.30;3.63;;;18.40;90.70;;;;;;5053884;28;20183;-65
2022/04/09 07:16:10;;;;;;;8.13;3.38;;;18.60;91.20;;;;;;5054204;28;20037;-66
2022/04/09 07:18:35;;;;;;;8.25;3.40;;;18.60;91.30;;;;;;5054091;28;20029;-64
2022/04/09 07:21:01;;;;;;;10.88;3.40;;;18.70;90.60;;;;;;5054312;28;20025;-63
2022/04/09 07:23:28;;;;;;;7.70;3.45;;;18.80;90.80;;;;;;5054019;28;20108;-64
2022/04/09 07:25:54;;;;;;;5.57;2.60;;;19.00;90.00;;;;;;5035749;28;20029;-64
2022/04/09 07:28:19;;;;;;;8.95;3.55;;;19.20;88.00;;;;;;5053997;28;20028;-64
2022/04/09 07:30:45;;;;;;;9.95;3.42;;;19.40;87.20;;;;;;5053902;28;20120;-65
2022/04/09 07:33:11;;;;;;;3.88;2.20;;;19.70;88.40;;;;;;5053801;28;20466;-64
2022/04/09 07:35:37;;;;;;;9.90;3.35;;;19.70;85.20;;;;;;5035751;28;20533;-64
2022/04/09 07:38:07;;;;;;;8.60;2.55;;;19.80;85.50;;;;;;5053797;28;20017;-64
2022/04/09 07:40:34;;;;;;;7.32;2.33;;;19.70;84.10;;;;;;5035716;28;20060;-66
2022/04/09 07:43:00;;;;;;;10.13;3.20;;;19.60;83.30;;;;;;5053456;28;20055;-66
2022/04/09 07:45:27;;;;;;;11.10;2.20;;;19.70;84.90;;;;;;5053153;28;20025;-66
2022/04/09 07:47:58;;;;;;;9.23;2.72;;;19.70;84.40;;;;;;5052079;28;20029;-64
2022/04/09 07:50:25;;;;;;;6.97;2.53;;;19.70;83.80;;;;;;5052722;28;20056;-64
2022/04/09 07:52:52;;;;;;;19.13;4.45;;;19.70;83.80;;;;;;5052216;28;20037;-64
2022/04/09 07:55:17;;;;;;;7.65;3.47;;;19.70;83.20;;;;;;5052215;28;20040;-64
2022/04/09 07:57:45;;;;;;;9.48;3.15;;;19.80;85.10;;;;;;5053027;28;20462;-63
2022/04/09 08:00:12;;;;;;;7.68;2.85;;;19.90;84.90;;;;;;5053187;28;20025;-65
2022/04/09 08:02:38;;;;;;;7.18;2.08;;;20.20;85.50;;;;;;5052989;28;20378;-66
2022/04/09 08:05:05;;;;;;;5.65;2.55;;;20.40;81.40;;;;;;5053266;28;20032;-65
2022/04/09 08:07:31;;;;;;;6.13;1.95;;;20.60;80.80;;;;;;5035493;28;20434;-66
2022/04/09 08:09:57;;;;;;;7.90;2.30;;;20.60;80.80;;;;;;5053365;28;20103;-66
2022/04/09 08:12:23;;;;;;;7.68;2.10;;;20.40;82.10;;;;;;5053052;28;20534;-65
2022/04/09 08:14:48;;;;;;;5.03;2.00;;;20.30;82.40;;;;;;5053131;28;20056;-65
2022/04/09 08:17:18;;;;;;;6.50;2.45;;;20.40;79.80;;;;;;5053072;28;20086;-66
2022/04/09 08:19:44;;;;;;;4.80;2.47;;;20.80;81.60;;;;;;5053002;28;20037;-65
2022/04/09 08:22:09;;;;;;;7.75;2.38;;;20.90;78.60;;;;;;5052999;28;20033;-66
2022/04/09 08:24:35;;;;;;;9.10;1.80;;;21.10;79.30;;;;;;5052941;28;20128;-66
2022/04/09 08:27:01;;;;;;;4.93;2.25;;;21.30;77.80;;;;;;5052656;28;20028;-66
2022/04/09 08:29:27;;;;;;;11.43;2.63;;;21.50;80.00;;;;;;5052905;28;20031;-65
2022/04/09 08:31:53;;;;;;;5.45;2.03;;;21.50;80.70;;;;;;5052836;28;20096;-65
2022/04/09 08:34:20;;;;;;;7.45;2.20;;;21.40;79.80;;;;;;5051136;28;20048;-65
2022/04/09 08:36:46;;;;;;;8.10;2.08;;;21.40;76.40;;;;;;5050993;28;20072;-65
2022/04/09 08:39:12;;;;;;;6.35;2.13;;;21.40;80.40;;;;;;5052172;28;20382;-65
2022/04/09 08:41:42;;;;;;;6.75;2.35;;;21.50;77.40;;;;;;5034732;28;20029;-64
2022/04/09 08:44:09;;;;;;;7.90;2.40;;;21.40;77.10;;;;;;5034901;28;20174;-65
2022/04/09 08:46:35;;;;;;;9.48;2.20;;;21.30;77.30;;;;;;5053095;28;20036;-65
2022/04/09 08:49:05;;;;;;;15.65;2.00;;;21.10;77.70;;;;;;5034728;28;20025;-64
2022/04/09 08:51:32;;;;;;;10.52;3.53;;;21.10;77.00;;;;;;5052670;28;20033;-65
2022/04/09 08:54:00;;;;;;;10.40;2.15;;;21.20;79.60;;;;;;5052302;28;20484;-66
2022/04/09 08:56:26;;;;;;;7.88;2.30;;;21.20;76.70;;;;;;5052560;28;20017;-65
2022/04/09 08:58:52;;;;;;;6.43;1.65;;;21.40;76.50;;;;;;5052705;28;20029;-64
2022/04/09 09:01:21;;;;;;;7.80;2.05;;;21.40;74.00;;;;;;5052846;28;20028;-65
2022/04/09 09:03:47;;;;;;;3.38;1.30;;;21.50;75.60;;;;;;5051476;28;20035;-66
2022/04/09 09:06:40;;;;;;;7.60;1.67;;;21.60;75.80;;;;;;5051785;28;20033;-67
2022/04/09 09:09:08;;;;;;;13.05;2.05;;;;;;;;;;5052236;28;20495;-67
2022/04/09 09:11:46;;;;;;;7.05;2.80;;;;;;;;;;5052434;28;20028;-68
2022/04/09 09:14:25;;;;;;;9.00;2.25;;;21.50;75.70;;;;;;5051887;28;20049;-68
2022/04/09 09:16:51;;;;;;;5.03;1.75;;;;;;;;;;5052417;28;20025;-67
2022/04/09 09:19:17;;;;;;;5.57;1.52;;;22.10;74.80;;;;;;5052382;28;20024;-66
2022/04/09 09:21:55;;;;;;;5.47;2.08;;;22.40;73.00;;;;;;5052327;28;20100;-66
2022/04/09 09:24:22;;;;;;;3.63;1.70;;;22.40;71.80;;;;;;5052262;28;20041;-68
2022/04/09 09:27:00;;;;;;;6.97;2.20;;;22.30;75.30;;;;;;5052312;28;20112;-70
2022/04/09 09:29:28;;;;;;;5.38;1.83;;;22.30;72.70;;;;;;5052253;28;20033;-70
2022/04/09 09:31:56;;;;;;;3.13;1.42;;;22.30;75.90;;;;;;5049348;28;20041;-67
2022/04/09 09:34:22;;;;;;;5.95;1.77;;;22.30;72.00;;;;;;5048809;28;20481;-65
2022/04/09 09:36:49;;;;;;;2.72;1.50;;;22.30;72.60;;;;;;5050185;28;20079;-69
2022/04/09 09:39:20;;;;;;;4.57;1.90;;;22.30;71.60;;;;;;5050709;28;20029;-68
2022/04/09 09:41:51;;;;;;;6.18;1.73;;;22.20;69.90;;;;;;5052067;28;20476;-66
2022/04/09 09:44:18;;;;;;;;;;;22.20;70.80;;;;;;5052417;28;20065;-67
2022/04/09 09:46:45;;;;;;;9.18;1.55;;;22.00;69.60;;;;;;5050632;28;19913;-66
2022/04/09 09:49:12;;;;;;;4.38;1.60;;;21.90;68.60;;;;;;5053841;28;20117;-69
2022/04/09 09:51:38;;;;;;;8.27;2.28;;;22.10;71.40;;;;;;5055748;28;20029;-68
2022/04/09 09:54:10;;;;;;;5.32;1.88;;;;;;;;;;5055363;28;20039;-68
2022/04/09 09:56:42;;;;;;;4.57;1.70;;;22.00;69.10;;;;;;5054266;28;20417;-68
2022/04/09 09:59:10;;;;;;;3.78;1.40;;;21.80;70.40;;;;;;5055646;28;20116;-66
2022/04/09 10:01:51;;;;;;;7.32;1.40;;;21.70;70.20;;;;;;5053973;28;20060;-68
2022/04/09 10:04:19;;;;;;;3.28;1.52;;;21.60;70.30;;;;;;5054037;28;20063;-67
2022/04/09 10:06:45;;;;;;;4.85;1.95;;;21.60;70.80;;;;;;5054513;28;20033;-66
2022/04/09 10:09:18;;;;;;;3.95;1.50;;;21.60;69.60;;;;;;5054251;28;20033;-67
2022/04/09 10:11:49;;;;;;;3.35;1.95;;;;;;;;;;5053084;28;20470;-67
2022/04/09 10:14:17;;;;;;;2.65;1.38;;;;;;;;;;5051637;28;20056;-67
2022/04/09 10:16:44;;;;;;;8.95;2.33;;;21.60;68.20;;;;;;5055083;28;20029;-66
2022/04/09 10:19:11;;;;;;;6.05;2.00;;;22.50;70.20;;;;;;5055117;28;20021;-66
2022/04/09 10:21:42;;;;;;;6.00;1.60;;;22.40;67.70;;;;;;5055160;28;20021;-69
2022/04/09 10:24:15;;;;;;;5.65;2.00;;;22.40;69.10;;;;;;5055152;28;20029;-68
2022/04/09 10:26:41;;;;;;;4.97;1.60;;;22.50;68.70;;;;;;5054857;28;20060;-69
2022/04/09 10:29:08;;;;;;;7.35;1.50;;;;;;;;;;5054787;28;20437;-66
2022/04/09 10:31:41;;;;;;;5.28;2.33;;;;;;;;;;5032390;28;20391;-68
2022/04/09 10:34:10;;;;;;;5.85;2.05;;;;;;;;;;5046582;28;20037;-66
2022/04/09 10:36:45;;;;;;;5.38;1.88;;;22.80;67.90;;;;;;5032817;28;20033;-68
2022/04/09 10:39:23;;;;;;;3.15;1.20;;;23.60;66.30;;;;;;5032232;28;20035;-68
2022/04/09 10:41:49;;;;;;;2.63;1.42;;;23.90;64.50;;;;;;5054700;28;20091;-67
2022/04/09 10:44:43;;;;;;;3.53;1.60;;;23.80;64.30;;;;;;5036886;28;20035;-69
2022/04/09 10:47:11;;;;;;;5.78;1.88;;;24.50;63.90;;;;;;5035813;28;20032;-68
2022/04/09 10:49:37;;;;;;;5.35;1.67;;;;;;;;;;5053133;28;20386;-68
2022/04/09 10:52:14;;;;;;;4.45;1.48;;;24.50;65.10;;;;;;5053831;28;20037;-68
2022/04/09 10:55:22;;;;;;;6.38;1.85;;;24.30;63.00;;;;;;5054577;28;20029;-68
2022/04/09 10:57:49;;;;;;;7.05;2.10;;;;;;;;;;5052443;28;20040;-67
2022/04/09 11:00:23;;;;;;;4.72;2.00;;;23.80;61.50;;;;;;5053873;28;20021;-68
2022/04/09 11:03:11;;;;;;;8.65;2.00;;;24.30;62.30;;;;;;5054472;28;20033;-67
2022/04/09 11:05:43;;;;;;;8.35;1.80;;;23.50;60.90;;;;;;5036485;28;20021;-68
2022/04/09 11:08:18;;;;;;;;;;;23.30;62.30;;;;;;5054653;28;20024;-65
2022/04/09 11:10:44;;;;;;;3.08;1.30;;;22.90;60.50;;;;;;5054135;28;19920;-68
2022/04/09 11:13:12;;;;;;;6.65;1.95;;;23.40;60.70;;;;;;5052172;28;20120;-67
2022/04/09 11:15:44;;;;;;;8.40;1.77;;;23.20;62.00;;;;;;5032278;28;20132;-68
2022/04/09 11:18:09;;;;;;;;;;;22.90;62.30;;;;;;5034784;28;20045;-66
2022/04/09 11:20:37;;;;;;;6.10;1.67;;;22.90;64.60;;;;;;5034251;28;19908;-68
2022/04/09 11:23:16;;;;;;;6.25;1.85;;;22.90;63.00;;;;;;5034126;28;20034;-68
2022/04/09 11:25:46;;;;;;;3.90;1.88;;;22.80;63.10;;;;;;5032778;28;20121;-68
2022/04/09 11:28:13;;;;;;;7.45;1.90;;;22.80;63.40;;;;;;5033975;28;20018;-68
2022/04/09 11:31:00;;;;;;;8.35;2.40;;;22.60;63.60;;;;;;5034053;28;20053;-66
2022/04/09 11:33:27;;;;;;;5.80;1.63;;;22.60;63.30;;;;;;5033992;28;20056;-66
2022/04/09 11:35:53;;;;;;;7.47;2.03;;;22.50;63.30;;;;;;5033805;28;20099;-68
2022/04/09 11:38:23;;;;;;;6.28;1.63;;;22.30;64.80;;;;;;5032534;28;20025;-65
2022/04/09 11:40:49;;;;;;;7.60;1.83;;;22.30;63.70;;;;;;5033846;28;20044;-65
2022/04/09 11:43:17;;;;;;;8.60;2.17;;;22.30;63.90;;;;;;5033741;28;20359;-69
2022/04/09 11:45:44;;;;;;;7.10;2.00;;;22.20;67.10;;;;;;5032302;28;20029;-68
2022/04/09 11:48:18;;;;;;;6.22;1.55;;;22.30;65.10;;;;;;5032316;28;20047;-66
2022/04/09 11:50:47;;;;;;;3.88;1.55;;;22.10;64.80;;;;;;5033948;28;20025;-67
2022/04/09 11:53:21;;;;;;;9.82;2.03;;;22.10;65.70;;;;;;5033522;28;20029;-68
2022/04/09 11:55:48;;;;;;;6.03;2.03;;;22.10;66.50;;;;;;5033359;28;20128;-69
2022/04/09 11:58:15;;;;;;;4.72;1.30;;;22.10;68.50;;;;;;5032141;28;20033;-67
2022/04/09 12:00:47;;;;;;;4.95;1.38;;;22.00;66.80;;;;;;5033322;28;20033;-66
2022/04/09 12:03:14;;;;;;;5.30;1.80;;;21.90;64.50;;;;;;5032115;28;20441;-66
2022/04/09 12:05:46;;;;;;;5.40;1.60;;;21.80;66.50;;;;;;5033139;28;20083;-66
2022/04/09 12:08:23;;;;;;;11.02;1.90;;;21.70;65.60;;;;;;5032025;28;20040;-66
2022/04/09 12:10:56;;;;;;;7.25;1.77;;;21.70;66.70;;;;;;5033506;28;20476;-66
2022/04/09 12:13:35;;;;;;;8.88;2.30;;;21.50;66.10;;;;;;5031080;28;20475;-66
2022/04/09 12:16:02;;;;;;;9.32;1.73;;;21.60;65.20;;;;;;5051553;28;20048;-66
2022/04/09 12:18:33;;;;;;;6.80;1.63;;;21.50;65.20;;;;;;5035142;28;20060;-67
2022/04/09 12:21:21;;;;;;;4.75;1.58;;;21.70;64.30;;;;;;5035259;28;20048;-66
2022/04/09 12:24:08;;;;;;;7.55;1.52;;;21.80;65.80;;;;;;5035082;28;20466;-67
2022/04/09 12:26:46;;;;;;;3.30;1.30;;;21.90;65.10;;;;;;5052793;28;20079;-69
2022/04/09 12:29:24;;;;;;;9.48;1.90;;;21.90;64.00;;;;;;5033405;28;20662;-68
2022/04/09 12:32:14;;;;;;;2.90;1.42;;;22.00;66.80;;;;;;5035918;28;20082;-68
2022/04/09 12:35:03;;;;;;;5.57;1.90;;;22.20;67.50;;;;;;5053051;28;20397;-68
2022/04/09 12:37:52;;;;;;;3.40;1.42;;;22.10;66.20;;;;;;5035174;28;20458;-68
2022/04/09 12:40:24;;;;;;;6.55;1.65;;;21.90;65.50;;;;;;5052671;28;20103;-69
2022/04/09 12:42:50;;;;;;;5.07;1.95;;;21.90;66.80;;;;;;5035017;28;20025;-67
2022/04/09 12:45:20;;;;;;;7.70;2.13;;;21.80;68.00;;;;;;5034914;28;20029;-68
2022/04/09 12:48:13;;;;;;;6.65;1.55;;;21.50;67.80;;;;;;5034825;28;20462;-68
2022/04/09 12:50:39;;;;;;;92.07;6.45;;;21.30;65.20;;;;;;5030651;28;20029;-65
2022/04/09 12:53:06;;;;;;;55.85;4.53;;;20.70;72.20;;;;;;5034682;28;20115;-64